Latest Weather Observations for Low Rocky Point

IDT60801

Issued at 9:31 pm EDT Saturday 13 February 2016 (issued every 30 minutes, with the page automatically refreshed every 10 minutes)

About weather observations | Map of weather stations | Latest weather observations for TAS | Other Formats
Station Details ID: 097080 Name: LOW ROCKY POINT Lat: -42.98 Lon: 145.50 Height: 34.0 m
Data from the previous 72 hours. | See also: Recent months at Low Rocky Point
Date/Time
EDT
Temp
°C
App
Temp
°C
Dew
Point
Rel
Hum
%
Delta-T
°C
Wind Press
QNH
hPa
Press
MSL
hPa
Rain
since 9 am
mm
Dir
 
Spd
km/h
Gust
km/h
Spd
kts
Gust
kts
13/09:30pm 15.5 9.6 10.3 71 2.7 WNW 32 39 17 21 1004.7 1004.7 1.4
13/09:00pm 15.5 9.4 10.3 71 2.7 WNW 33 39 18 21 1004.5 1004.5 1.4
13/08:30pm 15.4 9.2 10.0 70 2.8 WNW 33 41 18 22 1004.3 1004.3 1.4
13/08:00pm 15.4 9.5 10.6 73 2.6 WNW 32 37 17 20 1004.0 1004.0 1.4
13/07:30pm 16.0 10.5 11.8 76 2.3 W 32 41 17 22 1003.7 1003.7 1.4
13/07:00pm 15.7 10.7 12.3 80 1.9 W 30 35 16 19 1003.6 1003.6 1.4
13/06:30pm 15.7 11.6 12.8 83 1.6 W 26 33 14 18 1003.5 1003.5 1.4
13/06:00pm 16.0 11.1 13.8 87 1.2 W 32 39 17 21 1003.3 1003.3 1.4
13/05:30pm 15.9 10.8 14.9 94 0.6 W 35 43 19 23 1003.0 1003.0 1.4
13/05:00pm 15.8 10.5 15.2 96 0.3 W 37 44 20 24 1003.0 1003.0 1.4
13/04:30pm 16.0 10.4 15.4 96 0.3 WNW 39 48 21 26 1003.0 1003.0 1.4
13/04:00pm 16.0 9.5 15.0 94 0.6 WNW 43 48 23 26 1003.0 1003.0 1.2
13/03:30pm 16.7 12.0 14.9 89 1.0 WNW 33 41 18 22 1003.1 1003.1 0.4
13/03:20pm 17.4 10.6 14.9 85 1.4 NW 44 57 24 31 1003.0 1003.0 0.2
13/03:00pm 18.8 12.3 16.6 87 1.3 NNW 46 57 25 31 1002.7 1002.7 0.2
13/02:30pm 18.1 11.1 16.3 89 1.1 NW 48 65 26 35 1003.0 1003.0 0.0
13/02:24pm 17.9 11.7 15.9 88 1.2 NW 43 65 23 35 1003.1 1003.1 0.0
13/02:00pm 17.3 9.8 14.9 86 1.4 NW 48 65 26 35 1003.2 1003.2 0.0
13/01:49pm 18.1 11.1 15.2 83 1.7 NNW 46 65 25 35 1003.3 1003.3 0.0
13/01:30pm 18.5 10.9 14.8 79 2.2 NNW 48 61 26 33 1003.4 1003.4 0.0
13/01:00pm 19.2 12.8 15.5 79 2.2 NNW 43 54 23 29 1003.5 1003.5 0.0
13/12:35pm 19.1 13.2 15.8 81 2.0 NNW 41 59 22 32 1003.6 1003.6 0.0
13/12:30pm 18.3 11.1 14.8 80 2.0 NNW 46 59 25 32 1003.6 1003.6 0.0
13/12:00pm 18.9 13.1 15.9 83 1.8 NNW 41 50 22 27 1003.8 1003.8 0.0
13/11:30am 18.7 12.8 15.8 83 1.7 NNW 41 52 22 28 1004.3 1004.3 0.0
13/11:00am 16.7 8.0 13.8 83 1.6 NNW 52 65 28 35 1004.4 1004.4 0.0
13/10:49am 17.8 10.7 13.9 78 2.2 NW 44 63 24 34 1004.5 1004.5 0.0
13/10:30am 18.3 11.0 14.4 78 2.3 NW 46 61 25 33 1004.5 1004.5 0.0
13/10:00am 18.4 10.9 13.9 75 2.6 NW 46 57 25 31 1004.6 1004.6 0.0
13/09:30am 18.6 10.4 14.1 75 2.6 NW 50 59 27 32 1004.7 1004.7 0.0
13/09:00am 18.4 11.0 14.3 77 2.4 NW 46 57 25 31 1004.6 1004.6 0.0
13/08:33am 17.8 11.6 13.9 78 2.2 NNW 39 57 21 31 1004.6 1004.6 0.0
13/08:30am 18.0 11.9 14.1 78 2.2 NNW 39 48 21 26 1004.7 1004.7 0.0
13/08:00am 17.7 10.2 14.0 79 2.1 NNW 46 57 25 31 1004.8 1004.8 0.0
13/07:30am 17.6 10.7 13.9 79 2.1 NW 43 52 23 28 1005.0 1005.0 0.0
13/07:00am 17.4 9.7 13.3 77 2.3 NW 46 57 25 31 1005.1 1005.1 0.0
13/06:30am 17.4 9.0 13.5 78 2.2 NW 50 65 27 35 1004.9 1004.9 0.0
13/06:00am 17.5 9.9 13.6 78 2.2 NW 46 57 25 31 1004.9 1004.9 0.0
13/05:30am 17.3 9.3 13.6 79 2.1 NW 48 59 26 32 1004.6 1004.6 0.0
13/05:00am 17.1 9.3 14.2 83 1.7 NW 48 59 26 32 1004.9 1004.9 0.0
13/04:30am 17.1 9.8 14.4 84 1.5 NW 46 57 25 31 1005.1 1005.1 0.0
13/04:00am 17.2 10.0 14.7 85 1.4 NW 46 57 25 31 1005.2 1005.2 0.0
13/03:30am 17.0 11.0 14.5 85 1.4 NW 39 48 21 26 1005.7 1005.7 0.0
13/03:00am 17.2 10.9 14.7 85 1.4 NW 41 50 22 27 1006.1 1006.1 0.0
13/02:30am 17.2 11.7 14.7 85 1.4 NW 37 46 20 25 1006.7 1006.7 0.0
13/02:00am 17.0 12.4 14.5 85 1.4 NNW 32 41 17 22 1007.4 1007.4 0.0
13/01:30am 17.0 13.1 14.3 84 1.5 NW 28 35 15 19 1007.8 1007.8 0.0
13/01:00am 16.8 12.7 13.9 83 1.7 NW 28 33 15 18 1008.2 1008.2 0.0
13/12:30am 16.8 12.3 13.9 83 1.6 NW 30 35 16 19 1008.8 1008.8 0.0
13/12:00am 16.8 13.0 13.7 82 1.8 NW 26 33 14 18 1009.3 1009.3 0.0
 
Date/Time
EDT
Temp
°C
App
Temp
°C
Dew
Point
Rel
Hum
%
Delta-T
°C
Wind Press
QNH
hPa
Press
MSL
hPa
Rain
since 9 am
mm
Dir
 
Spd
km/h
Gust
km/h
Spd
kts
Gust
kts
12/11:30pm 16.6 13.1 13.3 81 1.9 NW 24 30 13 16 1009.4 1009.4 0.0
12/11:00pm 15.7 13.6 12.3 80 1.9 NNW 15 19 8 10 1009.9 1009.9 0.0
12/10:30pm 15.3 12.6 11.7 79 1.9 N 17 20 9 11 1010.2 1010.2 0.0
12/10:00pm 15.8 13.2 12.0 78 2.1 NNW 17 26 9 14 1010.4 1010.4 0.0
12/09:30pm 16.6 13.6 12.6 77 2.2 NW 20 28 11 15 1010.6 1010.6 0.0
12/09:00pm 16.7 13.7 12.5 76 2.3 NNW 20 24 11 13 1010.7 1010.7 0.0
12/08:30pm 16.8 14.3 12.3 75 2.5 NW 17 20 9 11 1010.8 1010.8 0.0
12/08:00pm 17.1 15.0 12.4 74 2.6 NW 15 20 8 11 1011.0 1011.0 0.0
12/07:30pm 17.6 15.9 12.5 72 2.8 NW 13 17 7 9 1010.9 1010.9 0.0
12/07:00pm 18.1 17.6 12.5 70 3.1 WNW 7 9 4 5 1011.0 1011.0 0.0
12/06:30pm 18.5 18.6 12.7 69 3.2 SSW 4 7 2 4 1011.2 1011.2 0.0
12/06:00pm 19.4 18.8 13.6 69 3.3 S 9 11 5 6 1011.5 1011.5 0.0
12/05:30pm 20.2 19.3 13.6 66 3.8 SSE 11 15 6 8 1011.7 1011.7 0.0
12/05:00pm 20.7 19.4 13.6 64 4.1 SSE 13 17 7 9 1012.0 1012.0 0.0
12/04:30pm 21.0 19.7 13.7 63 4.2 SSE 13 17 7 9 1012.4 1012.4 0.0
12/04:00pm 20.5 18.7 13.2 63 4.2 S 15 19 8 10 1013.0 1013.0 0.0
12/03:30pm 20.6 18.7 13.1 62 4.3 SSE 15 19 8 10 1013.1 1013.1 0.0
12/03:00pm 21.2 19.1 13.6 62 4.4 SSE 17 20 9 11 1013.6 1013.6 0.0
12/02:30pm 21.1 19.0 13.5 62 4.4 SSE 17 20 9 11 1014.0 1014.0 0.0
12/02:00pm 20.8 18.7 13.5 63 4.2 S 17 22 9 12 1014.5 1014.5 0.0
12/01:30pm 20.6 18.2 13.8 65 3.9 SSW 19 22 10 12 1015.1 1015.1 0.0
12/01:00pm 20.3 18.4 14.2 68 3.5 SSW 17 20 9 11 1015.2 1015.2 0.0
12/12:30pm 19.8 18.2 14.0 69 3.3 S 15 20 8 11 1015.3 1015.3 0.0
12/12:00pm 20.1 18.5 13.8 67 3.6 S 15 17 8 9 1015.8 1015.7 0.0
12/11:30am 19.1 17.7 13.3 69 3.3 SE 13 17 7 9 1016.3 1016.2 0.0
12/11:00am 17.9 16.3 12.8 72 2.8 SE 13 17 7 9 1016.8 1016.8 0.0
12/10:30am 18.1 16.3 13.2 73 2.8 SE 15 17 8 9 1017.3 1017.2 0.0
12/10:00am 18.7 17.5 14.0 74 2.7 ESE 13 19 7 10 1017.4 1017.4 0.0
12/09:30am 18.0 17.1 13.7 76 2.4 ESE 11 15 6 8 1017.9 1017.8 0.0
12/09:00am 17.0 16.3 13.3 79 2.1 ESE 9 13 5 7 1018.0 1018.0 0.2
12/08:30am 16.0 15.6 12.9 82 1.7 E 7 11 4 6 1018.0 1017.9 0.2
12/08:00am 14.9 14.4 12.2 84 1.5 ESE 6 7 3 4 1018.0 1018.0 0.2
12/07:30am 12.9 11.7 10.4 85 1.3 E 7 9 4 5 1017.7 1017.6 0.2
12/07:00am 11.2 8.8 8.6 84 1.3 ENE 11 13 6 7 1017.1 1017.1 0.2
12/06:30am 11.1 8.6 8.3 83 1.4 ENE 11 13 6 7 1017.0 1016.9 0.2
12/06:00am 11.1 8.6 8.1 82 1.5 ENE 11 13 6 7 1016.8 1016.8 0.2
12/05:30am 11.4 8.9 8.1 80 1.6 ENE 11 13 6 7 1016.7 1016.6 0.2
12/05:00am 12.0 10.0 8.7 80 1.6 ENE 9 11 5 6 1017.1 1017.1 0.2
12/04:30am 12.5 10.2 9.0 79 1.8 ENE 11 13 6 7 1017.2 1017.1 0.2
12/04:00am 12.7 10.5 9.2 79 1.8 ENE 11 13 6 7 1017.5 1017.5 0.2
12/03:30am 12.3 9.9 8.6 78 1.8 ENE 11 13 6 7 1017.8 1017.7 0.2
12/03:00am 12.0 9.9 8.3 78 1.8 ENE 9 11 5 6 1018.0 1018.0 0.2
12/02:30am 11.9 9.8 8.2 78 1.8 ENE 9 11 5 6 1018.3 1018.2 0.2
12/02:00am 11.7 9.1 7.8 77 1.9 ENE 11 11 6 6 1018.3 1018.3 0.2
12/01:30am 12.0 9.8 7.9 76 2.0 ENE 9 13 5 7 1018.5 1018.4 0.2
12/01:00am 12.3 9.8 8.2 76 2.0 ENE 11 13 6 7 1018.7 1018.7 0.2
12/12:30am 13.4 11.1 8.9 74 2.3 E 11 15 6 8 1018.7 1018.6 0.2
12/12:00am 14.3 12.2 9.7 74 2.4 S 11 15 6 8 1019.0 1019.0 0.2
 
Date/Time
EDT
Temp
°C
App
Temp
°C
Dew
Point
Rel
Hum
%
Delta-T
°C
Wind Press
QNH
hPa
Press
MSL
hPa
Rain
since 9 am
mm
Dir
 
Spd
km/h
Gust
km/h
Spd
kts
Gust
kts
11/11:30pm 14.3 11.8 9.7 74 2.4 S 13 17 7 9 1019.1 1019.0 0.2
11/11:00pm 14.2 11.6 9.4 73 2.5 SSW 13 17 7 9 1019.0 1019.0 0.2
11/10:30pm 14.2 12.0 9.4 73 2.5 SSW 11 17 6 9 1019.2 1019.1 0.2
11/10:00pm 14.7 12.3 9.9 73 2.5 SW 13 19 7 10 1019.2 1019.2 0.2
11/09:30pm 14.1 12.2 9.1 72 2.5 SSW 9 15 5 8 1018.9 1018.8 0.2
11/09:00pm 14.5 12.3 9.3 71 2.7 SSW 11 13 6 7 1018.6 1018.6 0.2
11/08:30pm 14.9 12.0 9.5 70 2.8 SSW 15 19 8 10 1018.3 1018.2 0.2
11/08:00pm 15.4 12.8 9.5 68 3.0 SSW 13 19 7 10 1018.1 1018.1 0.2
11/07:30pm 16.3 13.7 9.5 64 3.5 SSW 13 17 7 9 1018.0 1017.9 0.2
11/07:00pm 17.6 15.0 9.5 59 4.2 SW 13 17 7 9 1017.9 1017.9 0.2
11/06:30pm 18.3 15.8 9.6 57 4.6 WSW 13 19 7 10 1017.9 1017.8 0.2
11/06:00pm 18.9 16.1 9.9 56 4.8 WSW 15 20 8 11 1017.9 1017.9 0.2
11/05:30pm 18.3 15.6 8.8 54 4.9 WSW 13 19 7 10 1017.4 1017.3 0.2
11/05:00pm 18.8 16.4 8.7 52 5.2 SSW 11 15 6 8 1017.4 1017.4 0.2
11/04:30pm 18.9 15.7 8.6 51 5.4 SW 15 20 8 11 1017.5 1017.4 0.2
11/04:00pm 19.0 15.8 8.6 51 5.4 WSW 15 20 8 11 1017.7 1017.7 0.2
11/03:30pm 19.2 17.0 9.4 53 5.2 WSW 11 15 6 8 1017.6 1017.5 0.2
11/03:00pm 19.2 16.6 9.4 53 5.2 WSW 13 19 7 10 1017.8 1017.8 0.2
11/02:30pm 19.0 15.8 10.0 56 4.8 W 17 20 9 11 1018.0 1017.9 0.2
11/02:00pm 19.4 16.6 11.2 59 4.5 W 17 20 9 11 1018.0 1018.0 0.2
11/01:30pm 18.5 15.0 10.3 59 4.4 W 19 26 10 14 1017.9 1017.8 0.2
11/01:00pm 18.4 15.5 11.0 62 4.0 WNW 17 20 9 11 1017.9 1017.9 0.2
11/12:30pm 18.0 16.0 11.6 66 3.5 WNW 13 19 7 10 1018.0 1017.9 0.2
11/12:00pm 17.7 15.8 11.9 69 3.2 W 13 20 7 11 1018.0 1018.0 0.2
11/11:30am 17.8 15.7 12.3 70 3.0 W 15 20 8 11 1017.9 1017.8 0.0
11/11:00am 17.3 14.6 11.8 70 3.0 W 17 22 9 12 1017.7 1017.7 0.0
11/10:30am 17.2 15.3 11.9 71 2.9 W 13 20 7 11 1017.8 1017.7 0.0
11/10:00am 16.6 13.7 11.1 70 3.0 W 17 20 9 11 1018.1 1018.1 0.0
11/09:30am 15.7 13.0 10.2 70 2.9 WSW 15 20 8 11 1017.8 1017.7 0.0
11/09:00am 16.0 13.5 11.2 73 2.6 WSW 15 22 8 12 1017.5 1017.5 3.8
11/08:30am 15.6 13.2 11.4 76 2.3 WSW 15 22 8 12 1017.2 1017.1 3.8
11/08:00am 14.8 11.5 10.8 77 2.1 WSW 19 24 10 13 1016.9 1016.9 3.8
11/07:30am 14.7 11.8 11.1 79 1.9 WSW 17 24 9 13 1016.5 1016.4 3.8
11/07:00am 14.0 12.1 10.6 80 1.8 WSW 11 17 6 9 1016.2 1016.1 3.8
11/06:30am 14.1 11.2 10.9 81 1.7 WSW 17 22 9 12 1016.0 1015.9 3.8
11/06:00am 14.1 11.2 11.1 82 1.6 WSW 17 22 9 12 1015.6 1015.5 3.8
11/05:30am 14.4 11.6 11.4 82 1.6 WSW 17 24 9 13 1015.3 1015.3 3.8
11/05:00am 14.6 11.3 11.7 83 1.6 WSW 20 26 11 14 1015.3 1015.3 3.8
11/04:30am 14.8 11.7 12.1 84 1.5 WSW 20 26 11 14 1015.2 1015.2 3.8
11/04:00am 14.7 11.8 12.2 85 1.4 WSW 19 26 10 14 1014.9 1014.9 3.8
11/03:30am 14.7 12.2 12.4 86 1.3 WSW 17 22 9 12 1014.9 1014.9 3.8
11/03:00am 15.0 12.6 12.7 86 1.3 WSW 17 22 9 12 1015.0 1015.0 3.8
11/02:30am 14.7 12.7 12.6 87 1.2 WSW 15 19 8 10 1015.1 1015.1 3.8
11/02:00am 14.6 12.5 12.5 87 1.1 WSW 15 20 8 11 1015.2 1015.2 3.8
11/01:30am 14.8 12.4 12.8 88 1.1 WSW 17 22 9 12 1015.2 1015.2 3.8
11/01:00am 14.9 12.6 13.1 89 1.0 WSW 17 22 9 12 1015.1 1015.1 3.8
11/12:30am 15.2 13.1 13.7 91 0.8 WSW 17 22 9 12 1014.9 1014.9 3.8
11/12:00am 15.2 13.5 13.7 91 0.8 WSW 15 22 8 12 1014.7 1014.7 3.8
 
Date/Time
EDT
Temp
°C
App
Temp
°C
Dew
Point
Rel
Hum
%
Delta-T
°C
Wind Press
QNH
hPa
Press
MSL
hPa
Rain
since 9 am
mm
Dir
 
Spd
km/h
Gust
km/h
Spd
kts
Gust
kts
10/11:30pm 15.4 13.5 14.1 92 0.7 WSW 17 20 9 11 1014.6 1014.6 3.8
10/11:00pm 15.3 13.7 14.0 92 0.7 WSW 15 19 8 10 1014.6 1014.6 3.8
10/10:30pm 15.2 12.9 14.2 94 0.6 WSW 19 26 10 14 1014.5 1014.5 3.8
10/10:00pm 15.4 13.7 14.6 95 0.5 WSW 17 24 9 13 1014.3 1014.3 3.8

Other Formats:

Comma delimited format used in spreadsheet applications
http://www.bom.gov.au/fwo/IDT60801/IDT60801.95961.axf

JavaScript Object Notation format (JSON) in row-major order
http://www.bom.gov.au/fwo/IDT60801/IDT60801.95961.json